createdAt,value
2017-11-13T00:01:07.157Z,4.10
2017-11-13T00:03:33.532Z,4.00
2017-11-13T00:05:59.912Z,4.10
2017-11-13T00:08:26.318Z,4.20
2017-11-13T00:10:52.711Z,4.10
2017-11-13T00:13:19.108Z,4.00
2017-11-13T00:15:45.504Z,3.90
2017-11-13T00:18:11.902Z,3.90
2017-11-13T00:20:39.046Z,4.00
2017-11-13T00:23:06.189Z,3.90
2017-11-13T00:25:33.382Z,3.80
2017-11-13T00:27:59.786Z,3.80
2017-11-13T00:30:26.903Z,4.10
2017-11-13T00:32:53.319Z,4.10
2017-11-13T00:35:19.729Z,4.10
2017-11-13T00:37:46.106Z,4.00
2017-11-13T00:40:12.527Z,4.00
2017-11-13T00:42:38.933Z,3.90
2017-11-13T00:45:05.332Z,4.00
2017-11-13T00:47:32.452Z,3.90
2017-11-13T00:49:58.869Z,3.90
2017-11-13T00:52:25.266Z,4.00
2017-11-13T00:54:51.690Z,4.00
2017-11-13T00:57:18.122Z,3.90
2017-11-13T00:59:44.520Z,4.00
2017-11-13T01:02:11.637Z,3.90
2017-11-13T01:04:38.032Z,3.90
2017-11-13T01:07:04.396Z,4.10
2017-11-13T01:09:30.793Z,4.00
2017-11-13T01:11:57.200Z,4.00
2017-11-13T01:14:24.335Z,4.10
2017-11-13T01:16:50.711Z,4.10
2017-11-13T01:19:17.096Z,4.10
2017-11-13T01:21:44.981Z,4.20
2017-11-13T01:24:12.113Z,4.20
2017-11-13T01:26:38.628Z,4.20
2017-11-13T01:29:05.022Z,4.10
2017-11-13T01:31:31.408Z,4.20
2017-11-13T01:33:57.813Z,4.10
2017-11-13T01:36:24.203Z,4.00
2017-11-13T01:38:51.365Z,4.10
2017-11-13T01:41:17.756Z,4.00
2017-11-13T01:43:44.154Z,4.00
2017-11-13T01:46:10.554Z,4.10
2017-11-13T01:48:36.993Z,4.10
2017-11-13T01:51:03.385Z,4.10
2017-11-13T01:53:29.792Z,4.10
2017-11-13T01:55:56.233Z,4.20
2017-11-13T01:58:22.671Z,4.20
2017-11-13T02:00:49.057Z,4.30
2017-11-13T02:03:15.454Z,4.40
2017-11-13T02:05:41.896Z,4.40
2017-11-13T02:08:09.085Z,4.40
2017-11-13T02:10:35.533Z,4.30
2017-11-13T02:13:01.975Z,4.30
2017-11-13T02:15:28.377Z,4.30
2017-11-13T02:17:54.819Z,4.30
2017-11-13T02:20:21.323Z,4.30
2017-11-13T02:22:48.519Z,4.30
2017-11-13T02:25:14.959Z,4.30
2017-11-13T02:27:41.391Z,4.20
2017-11-13T02:30:07.825Z,4.20
2017-11-13T02:32:34.469Z,4.20
2017-11-13T02:35:01.639Z,4.20
2017-11-13T02:37:28.064Z,4.20
2017-11-13T02:39:56.004Z,4.30
2017-11-13T02:42:22.421Z,4.30
2017-11-13T02:44:48.887Z,4.30
2017-11-13T02:47:15.359Z,4.40
2017-11-13T02:49:41.810Z,4.30
2017-11-13T02:52:08.251Z,4.20
2017-11-13T02:54:34.695Z,4.10
2017-11-13T02:57:01.131Z,4.10
2017-11-13T02:59:27.560Z,4.10
2017-11-13T03:01:53.973Z,4.10
2017-11-13T03:04:20.368Z,4.10
2017-11-13T03:06:46.838Z,4.00
2017-11-13T03:09:13.245Z,4.10
2017-11-13T03:11:40.684Z,4.00
2017-11-13T03:14:07.115Z,3.90
2017-11-13T03:16:33.499Z,3.80
2017-11-13T03:18:59.922Z,3.90
2017-11-13T03:21:26.340Z,4.00
2017-11-13T03:23:53.500Z,3.90
2017-11-13T03:26:19.914Z,3.80
2017-11-13T03:28:47.065Z,3.90
2017-11-13T03:31:14.266Z,4.00
2017-11-13T03:33:40.908Z,4.00
2017-11-13T03:36:07.328Z,3.90
2017-11-13T03:38:33.734Z,3.90
2017-11-13T03:41:00.912Z,4.00
2017-11-13T03:43:27.319Z,3.90
2017-11-13T03:45:53.716Z,3.90
2017-11-13T03:48:20.080Z,3.90
2017-11-13T03:50:46.482Z,3.80
2017-11-13T03:53:12.870Z,3.80
2017-11-13T03:55:39.275Z,4.00
2017-11-13T03:58:05.640Z,4.00
2017-11-13T04:00:32.017Z,4.10
2017-11-13T04:02:58.431Z,4.10
2017-11-13T04:05:24.839Z,4.10
2017-11-13T04:07:51.283Z,4.00
2017-11-13T04:10:17.731Z,3.90
2017-11-13T04:12:44.119Z,3.80
2017-11-13T04:15:10.523Z,3.80
2017-11-13T04:17:37.657Z,3.80
2017-11-13T04:20:04.095Z,3.80
2017-11-13T04:22:30.454Z,3.70
2017-11-13T04:24:56.893Z,3.80
2017-11-13T04:27:23.276Z,3.80
2017-11-13T04:29:49.672Z,3.90
2017-11-13T04:32:16.162Z,3.80
2017-11-13T04:34:43.308Z,4.10
2017-11-13T04:37:10.441Z,4.10
2017-11-13T04:39:36.843Z,4.10
2017-11-13T04:42:03.964Z,4.00
2017-11-13T04:44:30.342Z,4.00
2017-11-13T04:46:56.777Z,3.90
2017-11-13T04:49:23.181Z,3.90
2017-11-13T04:51:49.573Z,4.10
2017-11-13T04:54:16.704Z,4.00
2017-11-13T04:56:43.833Z,3.90
2017-11-13T04:59:10.224Z,3.90
2017-11-13T05:01:36.636Z,3.80
2017-11-13T05:04:03.768Z,3.80
2017-11-13T05:06:31.735Z,3.70
2017-11-13T05:08:58.180Z,3.70
2017-11-13T05:11:25.384Z,3.90
2017-11-13T05:13:51.793Z,3.90
2017-11-13T05:16:18.257Z,3.90
2017-11-13T05:18:44.718Z,3.80
2017-11-13T05:21:11.257Z,3.80
2017-11-13T05:23:37.675Z,3.70
2017-11-13T05:26:04.122Z,3.70
2017-11-13T05:28:30.580Z,3.80
2017-11-13T05:30:57.753Z,3.90
2017-11-13T05:33:24.157Z,3.90
2017-11-13T05:35:51.280Z,3.90
2017-11-13T05:38:17.682Z,3.90
2017-11-13T05:40:44.067Z,3.80
2017-11-13T05:43:11.224Z,3.80
2017-11-13T05:45:38.335Z,3.70
2017-11-13T05:48:04.744Z,3.70
2017-11-13T05:50:31.151Z,3.70
2017-11-13T05:52:57.524Z,3.80
2017-11-13T05:55:23.948Z,3.70
2017-11-13T05:57:50.339Z,3.60
2017-11-13T06:00:16.736Z,3.60
2017-11-13T06:02:43.142Z,3.60
2017-11-13T06:05:09.540Z,3.60
2017-11-13T06:07:35.986Z,3.70
2017-11-13T06:10:02.457Z,3.70
2017-11-13T06:12:28.871Z,3.60
2017-11-13T06:14:55.265Z,3.60
2017-11-13T06:17:21.674Z,3.50
2017-11-13T06:19:48.820Z,3.40
2017-11-13T06:22:15.186Z,3.40
2017-11-13T06:24:41.605Z,3.40
2017-11-13T06:27:08.013Z,3.50
2017-11-13T06:29:34.405Z,3.50
2017-11-13T06:32:00.819Z,3.60
2017-11-13T06:34:27.237Z,3.50
2017-11-13T06:36:54.356Z,3.50
2017-11-13T06:39:20.781Z,3.50
2017-11-13T06:41:47.964Z,3.50
2017-11-13T06:44:15.103Z,3.40
2017-11-13T06:46:42.233Z,3.50
2017-11-13T06:49:08.621Z,3.40
2017-11-13T06:51:35.034Z,3.60
2017-11-13T06:54:01.450Z,3.70
2017-11-13T06:56:28.636Z,3.70
2017-11-13T06:58:55.041Z,3.70
2017-11-13T07:01:22.170Z,3.70
2017-11-13T07:03:48.636Z,3.70
2017-11-13T07:06:15.026Z,3.50
2017-11-13T07:08:41.416Z,3.40
2017-11-13T07:11:07.849Z,3.50
2017-11-13T07:13:34.270Z,3.70
2017-11-13T07:16:00.685Z,3.80
2017-11-13T07:18:27.091Z,3.70
2017-11-13T07:20:53.466Z,3.70
2017-11-13T07:23:19.872Z,3.70
2017-11-13T07:25:47.053Z,3.60
2017-11-13T07:28:13.444Z,3.60
2017-11-13T07:30:39.864Z,3.70
2017-11-13T07:33:06.272Z,3.90
2017-11-13T07:35:32.674Z,3.90
2017-11-13T07:37:59.117Z,3.90
2017-11-13T07:40:25.533Z,3.90
2017-11-13T07:42:51.933Z,3.80
2017-11-13T07:45:19.069Z,3.90
2017-11-13T07:47:45.461Z,4.00
2017-11-13T07:50:11.846Z,4.00
2017-11-13T07:52:38.257Z,4.10
2017-11-13T07:55:04.658Z,4.10
2017-11-13T07:57:31.074Z,4.10
2017-11-13T07:59:57.493Z,4.10
2017-11-13T08:02:24.663Z,4.20
2017-11-13T08:04:51.118Z,4.10
2017-11-13T08:07:17.512Z,4.00
2017-11-13T08:09:44.709Z,4.10
2017-11-13T08:12:11.113Z,4.00
2017-11-13T08:14:37.525Z,4.20
2017-11-13T08:17:04.695Z,4.10
2017-11-13T08:19:31.813Z,4.20
2017-11-13T08:21:58.991Z,4.10
2017-11-13T08:24:25.445Z,4.10
2017-11-13T08:26:51.834Z,4.20
2017-11-13T08:29:19.009Z,4.20
2017-11-13T08:31:45.450Z,4.20
2017-11-13T08:34:11.901Z,4.30
2017-11-13T08:36:38.361Z,4.20
2017-11-13T08:39:04.785Z,4.10
2017-11-13T08:41:31.197Z,4.10
2017-11-13T08:43:57.598Z,4.10
2017-11-13T08:46:24.004Z,4.30
2017-11-13T08:48:51.137Z,4.20
2017-11-13T08:51:17.517Z,4.20
2017-11-13T08:53:43.905Z,4.20
2017-11-13T08:56:10.331Z,4.20
2017-11-13T08:58:38.224Z,4.20
2017-11-13T09:01:05.372Z,4.10
2017-11-13T09:03:32.524Z,4.20
2017-11-13T09:05:58.918Z,4.10
2017-11-13T09:08:25.342Z,4.20
2017-11-13T09:10:51.726Z,4.20
2017-11-13T09:13:18.869Z,4.10
2017-11-13T09:15:46.033Z,4.10
2017-11-13T09:18:13.200Z,4.10
2017-11-13T09:20:39.608Z,4.10
2017-11-13T09:23:06.749Z,4.20
2017-11-13T09:25:33.888Z,4.40
2017-11-13T09:28:01.792Z,4.30
2017-11-13T09:30:28.196Z,4.30
2017-11-13T09:32:56.058Z,4.50
2017-11-13T09:35:23.226Z,4.60
2017-11-13T09:37:50.388Z,4.60
2017-11-13T09:40:16.832Z,4.60
2017-11-13T09:42:43.262Z,4.50
2017-11-13T09:45:09.670Z,4.50
2017-11-13T09:47:36.159Z,4.60
2017-11-13T09:50:02.660Z,4.70
2017-11-13T09:52:29.118Z,4.70
2017-11-13T09:54:55.523Z,4.60
2017-11-13T09:57:21.964Z,4.60
2017-11-13T09:59:48.397Z,4.50
2017-11-13T10:02:14.885Z,4.60
2017-11-13T10:04:42.076Z,4.80
2017-11-13T10:07:08.503Z,4.70
2017-11-13T10:09:34.969Z,4.60
2017-11-13T10:12:01.849Z,4.50
2017-11-13T10:14:29.045Z,4.70
2017-11-13T10:16:55.510Z,4.70
2017-11-13T10:19:21.988Z,4.70
2017-11-13T10:21:48.448Z,4.80
2017-11-13T10:24:14.910Z,4.80
2017-11-13T10:26:41.375Z,4.70
2017-11-13T10:29:08.521Z,4.60
2017-11-13T10:31:35.682Z,4.70
2017-11-13T10:34:02.936Z,4.70
2017-11-13T10:36:30.132Z,4.80
2017-11-13T10:38:56.568Z,4.70
2017-11-13T10:41:22.970Z,4.70
2017-11-13T10:43:49.407Z,4.70
2017-11-13T10:46:15.887Z,4.70
2017-11-13T10:48:43.059Z,4.80
2017-11-13T10:51:10.244Z,4.90
2017-11-13T10:53:36.709Z,4.90
2017-11-13T10:56:04.469Z,5.10
2017-11-13T10:58:30.949Z,5.10
2017-11-13T11:00:58.187Z,5.10
2017-11-13T11:03:24.701Z,5.00
2017-11-13T11:05:51.187Z,4.90
2017-11-13T11:08:17.657Z,4.70
2017-11-13T11:10:44.160Z,4.50
2017-11-13T11:13:10.676Z,4.40
2017-11-13T11:15:53.008Z,4.60
2017-11-13T11:18:19.532Z,4.70
2017-11-13T11:21:02.987Z,4.70
2017-11-13T11:23:30.382Z,4.70
2017-11-13T11:26:13.783Z,4.70
2017-11-13T11:28:59.230Z,4.80
2017-11-13T11:31:26.535Z,4.80
2017-11-13T11:33:53.021Z,4.90
2017-11-13T11:36:20.372Z,4.90
2017-11-13T11:38:46.868Z,5.20
2017-11-13T11:41:15.861Z,5.40
2017-11-13T11:43:43.049Z,5.60
2017-11-13T11:46:10.408Z,5.60
2017-11-13T11:48:39.801Z,5.60
2017-11-13T11:51:06.291Z,5.50
2017-11-13T11:53:32.723Z,5.40
2017-11-13T11:56:07.079Z,5.50
2017-11-13T11:58:34.345Z,5.50
2017-11-13T12:01:00.817Z,5.50
2017-11-13T12:03:27.253Z,5.30
2017-11-13T12:05:53.749Z,5.10
2017-11-13T12:08:20.201Z,4.90
2017-11-13T12:10:46.616Z,4.90
2017-11-13T12:13:13.067Z,4.80
2017-11-13T12:15:39.488Z,4.80
2017-11-13T12:18:05.903Z,5.00
2017-11-13T12:20:32.345Z,5.00
2017-11-13T12:22:58.778Z,5.00
2017-11-13T12:25:25.509Z,5.20
2017-11-13T12:27:51.945Z,5.30
2017-11-13T12:30:18.366Z,5.10
2017-11-13T12:32:45.503Z,5.00
2017-11-13T12:35:12.643Z,5.20
2017-11-13T12:37:39.778Z,5.20
2017-11-13T12:40:06.203Z,5.20
2017-11-13T12:42:32.612Z,5.30
2017-11-13T12:44:59.012Z,5.40
2017-11-13T12:47:26.209Z,5.30
2017-11-13T12:49:52.608Z,5.30
2017-11-13T12:52:19.047Z,5.20
2017-11-13T12:54:45.485Z,5.30
2017-11-13T12:57:11.940Z,5.20
2017-11-13T12:59:38.425Z,5.20
2017-11-13T13:02:05.631Z,5.30
2017-11-13T13:04:32.146Z,5.30
2017-11-13T13:06:58.610Z,5.30
2017-11-13T13:09:25.057Z,5.30
2017-11-13T13:11:52.245Z,5.20
2017-11-13T13:14:18.671Z,5.20
2017-11-13T13:16:45.166Z,5.20
2017-11-13T13:19:12.318Z,5.20
2017-11-13T13:21:38.720Z,5.20
2017-11-13T13:24:05.127Z,5.10
2017-11-13T13:26:31.542Z,5.10
2017-11-13T13:28:58.684Z,5.20
2017-11-13T13:31:25.828Z,5.20
2017-11-13T13:33:52.973Z,5.10
2017-11-13T13:36:20.139Z,5.00
2017-11-13T13:38:47.267Z,5.00
2017-11-13T13:41:13.668Z,5.00
2017-11-13T13:43:40.050Z,5.10
2017-11-13T13:46:07.209Z,5.20
2017-11-13T13:48:34.353Z,5.20
2017-11-13T13:51:01.528Z,5.20
2017-11-13T13:53:28.251Z,5.20
2017-11-13T13:55:54.672Z,5.40
2017-11-13T13:58:21.868Z,5.50
2017-11-13T14:00:49.117Z,5.40
2017-11-13T14:03:15.548Z,5.40
2017-11-13T14:05:42.153Z,5.50
2017-11-13T14:08:09.323Z,5.50
2017-11-13T14:10:35.757Z,5.50
2017-11-13T14:13:02.174Z,5.40
2017-11-13T14:15:28.616Z,5.30
2017-11-13T14:17:55.097Z,5.10
2017-11-13T14:20:21.585Z,5.00
2017-11-13T14:22:48.040Z,5.00
2017-11-13T14:25:14.458Z,5.00
2017-11-13T14:27:40.911Z,5.10
2017-11-13T14:30:07.345Z,5.20
2017-11-13T14:32:33.859Z,5.20
2017-11-13T14:35:00.285Z,5.30
2017-11-13T14:37:26.710Z,5.30
2017-11-13T14:39:53.301Z,5.20
2017-11-13T14:42:19.804Z,5.10
2017-11-13T14:44:46.218Z,5.20
2017-11-13T14:47:12.633Z,5.20
2017-11-13T14:49:39.914Z,5.20
2017-11-13T14:52:06.362Z,5.10
2017-11-13T14:54:32.767Z,5.10
2017-11-13T14:56:59.156Z,5.20
2017-11-13T14:59:25.587Z,5.20
2017-11-13T15:01:51.992Z,5.20
2017-11-13T15:04:18.427Z,5.10
2017-11-13T15:06:44.856Z,5.10
2017-11-13T15:09:11.264Z,5.30
2017-11-13T15:11:37.664Z,5.40
2017-11-13T15:14:04.071Z,5.40
2017-11-13T15:16:31.172Z,5.30
2017-11-13T15:18:58.305Z,5.10
2017-11-13T15:21:25.478Z,5.20
2017-11-13T15:23:51.920Z,5.20
2017-11-13T15:26:18.324Z,5.20
2017-11-13T15:28:45.460Z,5.20
2017-11-13T15:31:12.638Z,5.40
2017-11-13T15:33:39.013Z,5.40
2017-11-13T15:36:05.432Z,5.50
2017-11-13T15:38:31.816Z,5.60
2017-11-13T15:40:58.201Z,5.70
2017-11-13T15:43:24.620Z,5.70
2017-11-13T15:45:51.002Z,5.80
2017-11-13T15:48:18.151Z,5.70
2017-11-13T15:50:45.284Z,5.70
2017-11-13T15:53:11.794Z,5.60
2017-11-13T15:55:38.215Z,5.50
2017-11-13T15:58:04.641Z,5.40
2017-11-13T16:00:31.062Z,5.40
2017-11-13T16:02:57.492Z,5.50
2017-11-13T16:05:23.925Z,5.50
2017-11-13T16:07:50.301Z,5.60
2017-11-13T16:10:16.692Z,5.50
2017-11-13T16:12:43.090Z,5.60
2017-11-13T16:15:10.223Z,5.70
2017-11-13T16:17:36.639Z,5.70
2017-11-13T16:20:03.066Z,5.60
2017-11-13T16:22:29.446Z,5.40
2017-11-13T16:24:56.565Z,5.20
2017-11-13T16:27:22.973Z,5.20
2017-11-13T16:29:49.437Z,5.00
2017-11-13T16:32:16.586Z,4.70
2017-11-13T16:34:43.773Z,4.70
2017-11-13T16:37:10.332Z,4.70
2017-11-13T16:39:36.805Z,4.80
2017-11-13T16:42:03.224Z,4.90
2017-11-13T16:44:29.616Z,4.70
2017-11-13T16:46:56.023Z,4.70
2017-11-13T16:49:23.149Z,4.80
2017-11-13T16:51:51.028Z,4.80
2017-11-13T16:54:18.940Z,4.90
2017-11-13T16:56:45.415Z,4.90
2017-11-13T16:59:12.593Z,4.80
2017-11-13T17:01:39.700Z,4.70
2017-11-13T17:04:06.108Z,4.70
2017-11-13T17:06:32.501Z,4.70
2017-11-13T17:08:59.654Z,4.70
2017-11-13T17:11:27.013Z,4.60
2017-11-13T17:13:54.155Z,4.70
2017-11-13T17:16:21.290Z,4.80
2017-11-13T17:18:47.683Z,4.80
2017-11-13T17:21:14.066Z,4.90
2017-11-13T17:23:41.191Z,5.10
2017-11-13T17:26:07.589Z,5.00
2017-11-13T17:28:34.008Z,5.00
2017-11-13T17:31:00.394Z,5.00
2017-11-13T17:33:27.629Z,5.10
2017-11-13T17:35:54.024Z,5.20
2017-11-13T17:38:20.493Z,5.10
2017-11-13T17:40:46.987Z,5.10
2017-11-13T17:43:13.423Z,5.00
2017-11-13T17:45:39.871Z,5.00
2017-11-13T17:48:06.281Z,5.00
2017-11-13T17:50:32.672Z,5.00
2017-11-13T17:52:59.056Z,5.00
2017-11-13T17:55:25.472Z,5.10
2017-11-13T17:57:52.650Z,5.10
2017-11-13T18:00:19.064Z,5.10
2017-11-13T18:02:46.184Z,5.10
2017-11-13T18:05:13.336Z,4.90
2017-11-13T18:07:40.487Z,4.80
2017-11-13T18:10:07.622Z,4.70
2017-11-13T18:12:34.753Z,4.50
2017-11-13T18:15:01.175Z,4.50
2017-11-13T18:17:27.581Z,4.40
2017-11-13T18:19:53.997Z,4.20
2017-11-13T18:22:21.157Z,4.10
2017-11-13T18:24:47.557Z,4.10
2017-11-13T18:27:13.956Z,4.00
2017-11-13T18:29:40.336Z,4.00
2017-11-13T18:32:07.458Z,4.00
2017-11-13T18:34:33.865Z,3.90
2017-11-13T18:37:00.260Z,3.90
2017-11-13T18:39:26.700Z,3.90
2017-11-13T18:41:53.922Z,3.90
2017-11-13T18:44:21.054Z,3.80
2017-11-13T18:46:47.470Z,3.80
2017-11-13T18:49:13.867Z,3.80
2017-11-13T18:51:40.280Z,3.90
2017-11-13T18:54:07.419Z,4.10
2017-11-13T18:56:34.603Z,4.20
2017-11-13T18:59:00.992Z,4.10
2017-11-13T19:01:27.396Z,4.20
2017-11-13T19:03:53.819Z,4.20
2017-11-13T19:06:20.208Z,4.20
2017-11-13T19:08:47.358Z,4.30
2017-11-13T19:11:14.518Z,4.40
2017-11-13T19:13:40.966Z,4.30
2017-11-13T19:16:07.649Z,4.50
2017-11-13T19:18:34.109Z,4.40
2017-11-13T19:21:01.279Z,4.40
2017-11-13T19:23:28.393Z,4.30
2017-11-13T19:25:54.847Z,4.30
2017-11-13T19:28:21.288Z,4.30
2017-11-13T19:30:48.449Z,4.50
2017-11-13T19:33:14.884Z,4.50
2017-11-13T19:35:41.317Z,4.70
2017-11-13T19:38:07.760Z,4.90
2017-11-13T19:40:34.179Z,5.00
2017-11-13T19:43:00.721Z,5.00
2017-11-13T19:45:27.143Z,5.20
2017-11-13T19:47:53.555Z,5.20
2017-11-13T19:50:20.697Z,5.20
2017-11-13T19:52:47.084Z,5.10
2017-11-13T19:55:13.495Z,5.10
2017-11-13T19:57:39.887Z,5.10
2017-11-13T20:00:06.294Z,5.10
2017-11-13T20:02:32.708Z,5.10
2017-11-13T20:04:59.123Z,5.00
2017-11-13T20:07:25.525Z,5.10
2017-11-13T20:09:53.430Z,5.10
2017-11-13T20:12:19.834Z,5.10
2017-11-13T20:14:46.964Z,5.00
2017-11-13T20:17:13.345Z,5.00
2017-11-13T20:19:39.724Z,4.80
2017-11-13T20:22:06.124Z,4.80
2017-11-13T20:24:32.560Z,4.90
2017-11-13T20:26:58.964Z,4.90
2017-11-13T20:29:25.330Z,5.00
2017-11-13T20:31:51.735Z,5.00
2017-11-13T20:34:18.129Z,4.90
2017-11-13T20:36:45.261Z,4.70
2017-11-13T20:39:11.674Z,4.70
2017-11-13T20:41:38.072Z,4.50
2017-11-13T20:44:04.453Z,4.40
2017-11-13T20:46:30.845Z,4.30
2017-11-13T20:48:57.316Z,4.30
2017-11-13T20:51:23.724Z,4.10
2017-11-13T20:53:50.112Z,4.10
2017-11-13T20:56:17.221Z,3.90
2017-11-13T20:58:43.643Z,3.90
2017-11-13T21:01:10.065Z,3.80
2017-11-13T21:03:36.440Z,3.70
2017-11-13T21:06:02.853Z,3.60
2017-11-13T21:08:29.325Z,3.50
2017-11-13T21:10:56.511Z,3.50
2017-11-13T21:13:22.904Z,3.50
2017-11-13T21:15:50.029Z,3.50
2017-11-13T21:18:16.435Z,3.50
2017-11-13T21:20:42.835Z,3.60
2017-11-13T21:23:09.967Z,3.50
2017-11-13T21:25:37.185Z,3.50
2017-11-13T21:28:03.675Z,3.50
2017-11-13T21:30:30.079Z,3.50
2017-11-13T21:32:57.245Z,3.50
2017-11-13T21:35:23.690Z,3.50
2017-11-13T21:37:50.096Z,3.60
2017-11-13T21:40:16.489Z,3.70
2017-11-13T21:42:42.900Z,3.80
2017-11-13T21:45:09.304Z,3.90
2017-11-13T21:47:36.507Z,4.00
2017-11-13T21:50:02.936Z,4.00
2017-11-13T21:52:29.422Z,4.20
2017-11-13T21:54:55.906Z,4.20
2017-11-13T21:57:22.323Z,4.20
2017-11-13T21:59:48.788Z,4.30
2017-11-13T22:02:15.215Z,4.40
2017-11-13T22:04:41.707Z,4.50
2017-11-13T22:07:08.142Z,4.50
2017-11-13T22:09:34.573Z,4.50
2017-11-13T22:12:01.018Z,4.50
2017-11-13T22:14:27.452Z,4.50
2017-11-13T22:16:53.905Z,4.60
2017-11-13T22:19:20.339Z,4.60
2017-11-13T22:21:46.755Z,4.70
2017-11-13T22:24:13.244Z,4.80
2017-11-13T22:26:40.387Z,4.80
2017-11-13T22:29:07.530Z,4.80
2017-11-13T22:31:33.925Z,4.80
2017-11-13T22:34:00.341Z,4.80
2017-11-13T22:36:26.737Z,4.80
2017-11-13T22:38:53.912Z,4.60
2017-11-13T22:41:20.349Z,4.60
2017-11-13T22:43:46.798Z,4.60
2017-11-13T22:46:13.185Z,4.70
2017-11-13T22:48:40.362Z,4.70
2017-11-13T22:51:06.761Z,4.70
2017-11-13T22:53:33.163Z,4.90
2017-11-13T22:55:59.560Z,4.80
2017-11-13T22:58:25.984Z,4.80
2017-11-13T23:00:53.097Z,4.90
2017-11-13T23:03:19.496Z,4.90
2017-11-13T23:05:45.908Z,4.80
2017-11-13T23:08:12.311Z,4.70
2017-11-13T23:10:39.432Z,4.40
2017-11-13T23:13:05.828Z,4.40
2017-11-13T23:15:32.221Z,4.30
2017-11-13T23:17:59.364Z,4.30
2017-11-13T23:20:25.957Z,4.30
2017-11-13T23:22:52.369Z,4.20
2017-11-13T23:25:18.744Z,4.20
2017-11-13T23:27:45.155Z,4.20
2017-11-13T23:30:11.573Z,4.20
2017-11-13T23:32:38.016Z,4.20
2017-11-13T23:35:04.414Z,4.30
2017-11-13T23:37:31.549Z,4.30
2017-11-13T23:39:57.910Z,4.30
2017-11-13T23:42:24.355Z,4.30
2017-11-13T23:44:50.773Z,4.40
2017-11-13T23:47:17.930Z,4.50
2017-11-13T23:49:44.343Z,4.50
2017-11-13T23:52:11.530Z,4.60
2017-11-13T23:54:37.939Z,4.50
2017-11-13T23:57:04.360Z,4.60
2017-11-13T23:59:31.521Z,4.70
